Anderson, South Carolina
Current Conditions -  °F | °C
As of 11:44 AM on Sunday 23 Nov 2014 (Local Time) from KAND Reporting Station
Heavy Rain Heavy Rain  
Wind Chill: 41°   Ceiling: 600
Heat Index: 46°   Visibility: 2mi
Dew Point: 45°   Wind: 12mph
Humidity: 96%   Direction: 60°ENE
Pressure: 30.02"   Gusts: NA
Location:  34.5°N, 82.65°W
Report Text: KAND 231644Z AUTO 06010KT 2SM +RA BR BKN006 OVC029 08/07 A3002 RMK AO2 P0013 T00780072
Loading
Personal Weather Stations






























Interactive Weather Map New forecast layout! Learn more

10-Day Weather Forecast

Advertisements
Track Severe Weather on mobile